createdAt,value
2023-03-27T00:02:24.507Z,7.37
2023-03-27T00:04:56.137Z,7.40
2023-03-27T00:07:23.547Z,7.55
2023-03-27T00:09:50.921Z,7.55
2023-03-27T00:12:18.173Z,7.72
2023-03-27T00:14:46.089Z,7.66
2023-03-27T00:17:14.119Z,7.70
2023-03-27T00:19:41.410Z,7.67
2023-03-27T00:22:09.624Z,7.78
2023-03-27T00:24:37.647Z,7.72
2023-03-27T00:27:05.083Z,7.76
2023-03-27T00:29:32.918Z,7.74
2023-03-27T00:32:00.488Z,7.69
2023-03-27T00:34:29.250Z,7.65
2023-03-27T00:36:56.842Z,7.78
2023-03-27T00:39:24.088Z,7.74
2023-03-27T00:41:52.252Z,7.82
2023-03-27T00:44:39.299Z,7.76
2023-03-27T00:47:09.549Z,7.73
2023-03-27T00:49:38.696Z,7.76
2023-03-27T00:52:07.416Z,7.82
2023-03-27T00:54:40.501Z,7.83
2023-03-27T00:57:11.011Z,7.78
2023-03-27T00:59:42.365Z,7.78
2023-03-27T01:02:10.466Z,7.65
2023-03-27T01:04:40.212Z,7.73
2023-03-27T01:07:11.525Z,7.63
2023-03-27T01:09:39.394Z,7.65
2023-03-27T01:12:24.813Z,7.69
2023-03-27T01:14:58.273Z,7.63
2023-03-27T01:17:51.532Z,7.52
2023-03-27T01:20:38.466Z,7.55
2023-03-27T01:23:36.388Z,7.36
2023-03-27T01:27:08.187Z,7.53
2023-03-27T01:29:53.907Z,7.44
2023-03-27T01:32:48.486Z,7.40
2023-03-27T01:35:29.144Z,7.33
2023-03-27T01:38:34.551Z,7.24
2023-03-27T01:41:14.900Z,7.22
2023-03-27T01:43:46.436Z,7.23
2023-03-27T01:46:31.918Z,7.20
2023-03-27T01:49:31.756Z,7.22
2023-03-27T01:52:08.405Z,7.14
2023-03-27T01:54:42.308Z,7.22
2023-03-27T01:57:12.716Z,7.22
2023-03-27T01:59:42.756Z,7.20
2023-03-27T02:02:14.553Z,7.08
2023-03-27T02:04:49.320Z,7.15
2023-03-27T02:07:24.232Z,6.98
2023-03-27T02:09:55.690Z,7.10
2023-03-27T02:12:33.743Z,7.14
2023-03-27T02:15:23.612Z,6.88
2023-03-27T02:18:05.289Z,7.00
2023-03-27T02:20:34.975Z,6.88
2023-03-27T02:23:02.695Z,6.73
2023-03-27T02:25:40.378Z,6.79
2023-03-27T02:28:23.159Z,6.77
2023-03-27T02:31:05.885Z,6.77
2023-03-27T02:34:07.482Z,6.74
2023-03-27T02:36:41.897Z,6.70
2023-03-27T02:39:29.461Z,6.69
2023-03-27T02:42:02.607Z,6.72
2023-03-27T02:44:46.246Z,6.70
2023-03-27T02:47:23.984Z,6.65
2023-03-27T02:50:06.592Z,6.71
2023-03-27T02:52:37.778Z,6.74
2023-03-27T02:55:16.417Z,6.82
2023-03-27T02:57:52.401Z,6.91
2023-03-27T03:00:26.411Z,6.95
2023-03-27T03:03:07.561Z,6.98
2023-03-27T03:05:37.390Z,7.05
2023-03-27T03:08:06.904Z,7.09
2023-03-27T03:10:35.143Z,7.06
2023-03-27T03:13:03.155Z,7.17
2023-03-27T03:15:30.387Z,7.28
2023-03-27T03:17:57.870Z,7.26
2023-03-27T03:20:25.148Z,7.27
2023-03-27T03:22:53.003Z,7.46
2023-03-27T03:25:20.231Z,7.51
2023-03-27T03:27:47.694Z,7.50
2023-03-27T03:30:17.018Z,7.52
2023-03-27T03:32:44.977Z,7.48
2023-03-27T03:35:14.064Z,7.34
2023-03-27T03:37:41.522Z,7.30
2023-03-27T03:40:12.198Z,7.55
2023-03-27T03:42:51.097Z,7.49
2023-03-27T03:45:19.516Z,7.49
2023-03-27T03:47:47.829Z,7.50
2023-03-27T03:50:15.815Z,7.33
2023-03-27T03:52:44.068Z,7.45
2023-03-27T03:55:12.623Z,7.44
2023-03-27T03:57:40.476Z,7.35
2023-03-27T04:00:12.559Z,7.43
2023-03-27T04:02:41.868Z,7.53
2023-03-27T04:05:10.359Z,7.48
2023-03-27T04:07:40.410Z,7.48
2023-03-27T04:10:08.960Z,7.46
2023-03-27T04:12:36.442Z,7.42
2023-03-27T04:15:09.613Z,7.50
2023-03-27T04:17:47.481Z,7.38
2023-03-27T04:20:16.294Z,7.42
2023-03-27T04:23:04.615Z,7.51
2023-03-27T04:25:32.791Z,7.38
2023-03-27T04:28:08.980Z,7.37
2023-03-27T04:30:37.376Z,7.26
2023-03-27T04:33:06.370Z,7.38
2023-03-27T04:35:34.023Z,7.26
2023-03-27T04:38:05.712Z,7.24
2023-03-27T04:40:33.630Z,7.23
2023-03-27T04:46:31.492Z,7.24
2023-03-27T04:49:01.820Z,7.39
2023-03-27T04:51:33.191Z,7.14
2023-03-27T04:54:05.200Z,7.18
2023-03-27T04:56:35.940Z,7.22
2023-03-27T04:59:06.953Z,7.06
2023-03-27T05:01:42.922Z,7.07
2023-03-27T05:04:10.611Z,7.13
2023-03-27T05:06:40.386Z,6.82
2023-03-27T05:09:11.315Z,6.90
2023-03-27T05:11:38.925Z,7.06
2023-03-27T05:14:09.847Z,6.90
2023-03-27T05:16:37.369Z,6.77
2023-03-27T05:21:43.368Z,6.85
2023-03-27T05:24:11.877Z,6.75
2023-03-27T05:26:43.783Z,6.89
2023-03-27T05:29:11.579Z,6.79
2023-03-27T05:31:40.181Z,6.74
2023-03-27T05:34:10.310Z,6.78
2023-03-27T05:36:38.111Z,6.88
2023-03-27T05:39:08.937Z,6.81
2023-03-27T05:41:37.136Z,6.73
2023-03-27T05:44:04.941Z,6.75
2023-03-27T05:46:32.481Z,6.92
2023-03-27T05:49:00.600Z,6.83
2023-03-27T05:51:28.088Z,7.02
2023-03-27T05:56:31.228Z,6.87
2023-03-27T05:58:58.689Z,6.81
2023-03-27T06:01:26.758Z,7.09
2023-03-27T06:03:57.778Z,7.35
2023-03-27T06:06:27.305Z,7.34
2023-03-27T06:08:56.897Z,7.45
2023-03-27T06:11:24.474Z,7.33
2023-03-27T06:17:21.572Z,7.41
2023-03-27T06:28:44.531Z,7.65
2023-03-27T06:57:31.793Z,7.00
2023-03-27T07:25:51.208Z,7.21
2023-03-27T07:53:49.902Z,8.47
2023-03-27T07:59:38.511Z,8.29
2023-03-27T08:02:11.418Z,8.44
2023-03-27T08:04:39.046Z,8.29
2023-03-27T08:07:07.258Z,8.09
2023-03-27T08:09:34.580Z,7.93
2023-03-27T08:12:02.274Z,7.95
2023-03-27T08:14:29.918Z,7.85
2023-03-27T08:19:55.444Z,8.15
2023-03-27T08:22:25.432Z,8.02
2023-03-27T08:24:54.413Z,7.92
2023-03-27T08:30:00.195Z,8.07
2023-03-27T08:32:29.225Z,8.08
2023-03-27T08:34:57.372Z,8.12
2023-03-27T08:40:20.538Z,8.45
2023-03-27T08:49:04.447Z,8.24
2023-03-27T08:51:54.395Z,7.99
2023-03-27T08:54:23.887Z,7.73
2023-03-27T08:56:51.670Z,7.83
2023-03-27T08:59:22.419Z,7.72
2023-03-27T09:01:52.761Z,7.53
2023-03-27T09:05:09.536Z,7.66
2023-03-27T09:08:02.984Z,7.67
2023-03-27T09:13:57.002Z,7.61
2023-03-27T09:16:50.144Z,7.64
2023-03-27T09:23:40.487Z,8.17
2023-03-27T09:47:26.033Z,7.83
2023-03-27T10:00:29.510Z,8.33
2023-03-27T10:08:41.299Z,8.00
2023-03-27T10:11:29.739Z,8.14
2023-03-27T10:14:09.028Z,7.96
2023-03-27T10:19:44.169Z,8.12
2023-03-27T10:22:34.390Z,8.32
2023-03-27T12:56:45.370Z,5.11
2023-03-27T12:59:54.659Z,5.15
2023-03-27T13:02:57.883Z,5.09
2023-03-27T13:08:42.671Z,5.20
2023-03-27T13:11:33.836Z,4.82
2023-03-27T13:14:43.876Z,4.71
2023-03-27T13:17:17.666Z,4.99
2023-03-27T13:22:54.727Z,5.04
2023-03-27T13:25:22.295Z,5.25
2023-03-27T13:31:52.022Z,5.07
2023-03-27T13:34:31.526Z,5.02
2023-03-27T13:37:12.432Z,5.03
2023-03-27T13:43:33.951Z,5.10
2023-03-27T13:46:09.812Z,4.84
2023-03-27T13:49:00.428Z,5.11
2023-03-27T13:51:40.195Z,4.90
2023-03-27T13:54:46.542Z,5.15
2023-03-27T14:00:42.518Z,5.12
2023-03-27T14:06:53.411Z,5.54
2023-03-27T14:09:46.420Z,5.34
2023-03-27T14:13:08.010Z,5.29
2023-03-27T14:22:11.790Z,5.16
2023-03-27T14:24:54.235Z,5.31
2023-03-27T15:14:04.418Z,4.84
2023-03-27T15:22:04.283Z,4.78
2023-03-27T15:24:57.257Z,4.79
2023-03-27T15:27:35.429Z,4.94
2023-03-27T15:30:31.068Z,4.90
2023-03-27T15:33:07.349Z,4.72
2023-03-27T15:35:37.415Z,4.89
2023-03-27T15:38:11.408Z,4.79
2023-03-27T15:40:43.794Z,4.72
2023-03-27T15:43:14.755Z,4.87
2023-03-27T15:46:05.571Z,4.82
2023-03-27T15:48:44.660Z,4.83
2023-03-27T15:51:28.513Z,4.72
2023-03-27T15:53:56.970Z,4.74
2023-03-27T15:56:35.342Z,4.71
2023-03-27T15:59:07.374Z,4.83
2023-03-27T16:01:52.603Z,4.85
2023-03-27T16:04:45.450Z,4.71
2023-03-27T16:07:30.601Z,4.67
2023-03-27T16:10:08.381Z,4.63
2023-03-27T16:12:50.464Z,4.95
2023-03-27T16:15:42.724Z,4.93
2023-03-27T16:18:28.827Z,4.87
2023-03-27T16:21:14.325Z,4.84
2023-03-27T16:23:45.336Z,4.77
2023-03-27T16:26:33.897Z,4.89
2023-03-27T16:32:17.561Z,5.06
2023-03-27T16:34:48.886Z,4.77
2023-03-27T16:37:17.265Z,4.91
2023-03-27T16:39:46.014Z,4.85
2023-03-27T16:42:21.745Z,5.08
2023-03-27T16:44:51.427Z,4.87
2023-03-27T16:50:39.287Z,5.05
2023-03-27T17:02:29.173Z,4.81
2023-03-27T17:14:00.493Z,5.02
2023-03-27T17:25:35.540Z,4.98
2023-03-27T17:33:28.291Z,4.81
2023-03-27T17:39:09.173Z,5.05
2023-03-27T17:41:46.992Z,5.03
2023-03-27T17:44:15.705Z,4.90
2023-03-27T17:46:47.540Z,4.87
2023-03-27T17:51:58.235Z,4.94
2023-03-27T17:54:47.272Z,4.91
2023-03-27T18:00:03.484Z,5.03
2023-03-27T18:03:17.389Z,4.81
2023-03-27T18:08:23.666Z,4.82
2023-03-27T18:10:52.110Z,4.86
2023-03-27T18:13:20.216Z,4.90
2023-03-27T18:15:48.285Z,4.76
2023-03-27T18:18:16.044Z,4.81
2023-03-27T18:20:43.786Z,4.56
2023-03-27T18:23:11.839Z,4.74
2023-03-27T18:25:43.707Z,4.65
